Time;durP1;ratioP1;P1;durP2;ratioP2;P2;SDS_P1;SDS_P2;PMS_P1;PMS_P2;Temp;Humidity;BMP_temperature;BMP_pressure;BME280_temperature;BME280_humidity;BME280_pressure;Samples;Min_cycle;Max_cycle;Signal;HPM_P1;HPM_P2
2021/11/27 00:00:28;;;;;;;30.70;19.48;;;;;;;5.04;90.64;98228.95;1711140;82;20973;-78
2021/11/27 00:02:57;;;;;;;27.52;21.02;;;;;;;5.01;91.61;98242.78;1723383;82;21051;-77
2021/11/27 00:05:26;;;;;;;29.15;21.33;;;;;;;4.96;92.25;98232.87;1725836;81;20953;-75
2021/11/27 00:07:53;;;;;;;28.90;19.62;;;;;;;4.93;93.09;98220.06;1744882;81;21507;-77
2021/11/27 00:10:26;;;;;;;26.57;18.25;;;;;;;4.95;93.72;98213.94;1737323;81;21003;-72
2021/11/27 00:12:53;;;;;;;34.90;21.33;;;;;;;4.92;94.46;98223.77;1730390;82;21047;-76
2021/11/27 00:15:21;;;;;;;24.23;17.23;;;;;;;4.83;95.64;98223.94;1732255;82;21519;-76
2021/11/27 00:17:48;;;;;;;29.65;21.65;;;;;;;4.76;96.75;98208.66;1680837;84;21010;-76
2021/11/27 00:20:19;;;;;;;30.70;22.27;;;;;;;4.70;97.72;98196.36;1732123;82;21035;-75
2021/11/27 00:22:47;;;;;;;23.80;15.83;;;;;;;4.73;97.78;98194.52;1735317;82;20973;-78
2021/11/27 00:25:14;;;;;;;31.02;20.00;;;;;;;4.72;98.29;98192.38;1718819;83;21000;-77
2021/11/27 00:27:42;;;;;;;35.25;22.55;;;;;;;4.77;98.37;98199.10;1735408;81;22180;-81
2021/11/27 00:30:13;;;;;;;34.00;22.37;;;;;;;4.77;98.61;98199.63;1745638;81;20989;-77
2021/11/27 00:32:40;;;;;;;37.42;24.72;;;;;;;4.72;98.64;98188.39;1702990;83;21343;-75
2021/11/27 00:35:08;;;;;;;31.80;22.00;;;;;;;4.64;99.27;98189.36;1697885;84;20998;-75
2021/11/27 00:37:34;;;;;;;30.45;18.80;;;;;;;4.58;100.00;98171.19;1681833;84;21110;-73
2021/11/27 00:40:04;;;;;;;32.10;21.33;;;;;;;4.58;100.00;98171.19;1705136;84;21058;-74
2021/11/27 00:42:31;;;;;;;41.08;25.95;;;;;;;4.59;100.00;98162.15;1672806;84;21133;-75
2021/11/27 00:44:58;;;;;;;35.33;24.98;;;;;;;4.59;100.00;98156.02;1703907;84;21067;-75
2021/11/27 00:47:25;;;;;;;38.63;26.68;;;;;;;4.62;100.00;98144.34;1701945;84;21120;-76
2021/11/27 00:49:54;;;;;;;36.83;23.90;;;;;;;4.60;100.00;98146.98;1696050;83;21132;-73
2021/11/27 00:52:22;;;;;;;39.50;27.45;;;;;;;4.59;100.00;98136.86;1692376;83;21086;-76
2021/11/27 00:54:49;;;;;;;30.12;20.65;;;;;;;4.58;100.00;98114.47;1688548;83;20930;-74
2021/11/27 00:57:15;;;;;;;41.15;26.12;;;;;;;4.52;100.00;98119.45;1711149;82;21523;-73
2021/11/27 00:59:43;;;;;;;36.40;25.48;;;;;;;4.51;100.00;98093.91;1694419;82;21078;-75
2021/11/27 01:02:10;;;;;;;39.38;27.07;;;;;;;4.51;100.00;98093.91;1695017;82;21037;-71
2021/11/27 01:04:37;;;;;;;35.28;25.27;;;;;;;4.50;100.00;98089.63;1746046;81;21417;-75
2021/11/27 01:07:06;;;;;;;35.20;25.40;;;;;;;4.54;100.00;98080.89;1717773;82;21038;-73
2021/11/27 01:09:34;;;;;;;37.33;22.58;;;;;;;4.58;100.00;98064.70;1720102;81;21055;-77
2021/11/27 01:12:03;;;;;;;27.62;23.05;;;;;;;4.58;100.00;98064.70;1736927;81;21045;-78
2021/11/27 01:14:30;;;;;;;23.62;17.77;;;;;;;4.64;100.00;98070.88;1736019;82;21036;-76
2021/11/27 01:17:02;;;;;;;34.40;23.25;;;;;;;4.57;100.00;98058.28;1691784;84;21274;-77
2021/11/27 01:19:31;;;;;;;32.83;22.83;;;;;;;4.56;100.00;98042.83;1684493;84;20976;-75
2021/11/27 01:22:03;;;;;;;32.23;22.10;;;;;;;4.57;100.00;98047.11;1683871;84;21753;-75
2021/11/27 01:24:30;;;;;;;22.50;16.45;;;;;;;4.59;100.00;98033.55;1684222;84;21502;-74
2021/11/27 01:26:59;;;;;;;30.10;20.25;;;;;;;4.56;100.00;98034.84;1708688;82;20971;-74
2021/11/27 01:29:26;;;;;;;32.58;22.30;;;;;;;4.57;100.00;98017.83;1709010;82;21223;-76
2021/11/27 01:31:55;;;;;;;29.05;20.17;;;;;;;4.61;100.00;98000.28;1707165;84;21211;-75
2021/11/27 01:34:22;;;;;;;32.48;23.40;;;;;;;4.61;100.00;97998.95;1707929;84;21078;-73
2021/11/27 01:36:49;;;;;;;29.82;21.30;;;;;;;4.63;100.00;98011.50;1683993;84;20990;-75
2021/11/27 01:39:16;;;;;;;22.70;17.37;;;;;;;4.69;100.00;97994.52;1683943;84;21658;-75
2021/11/27 01:41:43;;;;;;;31.42;20.12;;;;;;;4.71;100.00;97989.73;1708547;84;21141;-78
2021/11/27 01:44:10;;;;;;;24.67;18.27;;;;;;;4.70;100.00;97997.99;1708564;84;21010;-84
2021/11/27 01:46:38;;;;;;;30.52;20.35;;;;;;;4.63;100.00;97990.73;1684291;84;21249;-82
2021/11/27 01:49:07;;;;;;;33.05;22.07;;;;;;;4.63;100.00;97972.09;1707758;84;21067;-75
2021/11/27 01:51:36;;;;;;;37.38;23.22;;;;;;;4.60;100.00;97967.28;1708617;84;21038;-76
2021/11/27 01:54:07;;;;;;;31.48;19.65;;;;;;;4.63;100.00;97974.75;1684308;84;21286;-73
2021/11/27 01:56:39;;;;;;;29.52;22.02;;;;;;;4.64;100.00;97939.90;1681473;84;21031;-75
2021/11/27 01:59:08;;;;;;;26.93;18.70;;;;;;;4.65;100.00;97943.37;1707306;84;21139;-75
2021/11/27 02:01:35;;;;;;;29.80;19.12;;;;;;;4.64;100.00;97943.09;1707702;84;21046;-75
2021/11/27 02:04:04;;;;;;;30.17;21.23;;;;;;;4.62;100.00;97928.69;1681602;84;21028;-72
2021/11/27 02:06:33;;;;;;;29.75;19.75;;;;;;;4.70;100.00;97944.73;1681564;84;22109;-76
2021/11/27 02:09:01;;;;;;;26.20;19.32;;;;;;;4.70;100.00;97944.73;1706130;84;20986;-75
2021/11/27 02:11:33;;;;;;;34.25;21.02;;;;;;;4.77;100.00;97924.81;1678535;84;21578;-79
2021/11/27 02:14:00;;;;;;;27.02;20.75;;;;;;;4.77;100.00;97932.80;1737538;81;21319;-77
2021/11/27 02:16:28;;;;;;;36.35;20.90;;;;;;;4.75;100.00;97929.58;1688853;84;21106;-78
2021/11/27 02:18:55;;;;;;;29.52;21.82;;;;;;;4.79;100.00;97941.35;1705020;84;21128;-74
2021/11/27 02:21:23;;;;;;;33.00;21.82;;;;;;;4.79;100.00;97941.35;1704863;84;20957;-74
2021/11/27 02:23:53;;;;;;;29.67;21.35;;;;;;;4.77;100.00;97921.34;1678345;84;21059;-74
2021/11/27 02:26:25;;;;;;;27.42;18.67;;;;;;;4.77;100.00;97924.81;1703310;84;21027;-72
2021/11/27 02:29:03;;;;;;;30.17;19.42;;;;;;;4.80;100.00;97920.83;1676610;84;21066;-74
2021/11/27 02:31:30;;;;;;;33.20;20.60;;;;;;;4.89;100.00;97925.17;1676579;84;21774;-75
2021/11/27 02:33:58;;;;;;;28.20;17.85;;;;;;;4.88;100.00;97908.91;1678267;84;21014;-79
2021/11/27 02:36:26;;;;;;;28.30;21.15;;;;;;;4.87;100.00;97905.44;1704329;84;21002;-78
2021/11/27 02:38:57;;;;;;;27.10;19.37;;;;;;;4.84;100.00;97904.63;1677999;84;20997;-78
2021/11/27 02:41:25;;;;;;;27.52;18.20;;;;;;;4.83;100.00;97901.16;1656168;84;20951;-83
2021/11/27 02:43:52;;;;;;;26.85;17.60;;;;;;;4.87;100.00;97900.11;1678303;84;21777;-78
2021/11/27 02:46:19;;;;;;;24.15;17.70;;;;;;;4.89;100.00;97888.69;1704927;84;21082;-77
2021/11/27 02:48:46;;;;;;;22.85;17.57;;;;;;;4.90;100.00;97878.28;1678627;84;21047;-77
2021/11/27 02:51:13;;;;;;;21.48;16.30;;;;;;;4.93;100.00;97877.78;1702835;84;21027;-78
2021/11/27 02:53:42;;;;;;;26.23;18.77;;;;;;;4.96;100.00;97866.61;1677818;84;21098;-77
2021/11/27 02:56:09;;;;;;;24.70;18.00;;;;;;;5.02;100.00;97873.57;1684272;84;21322;-78
2021/11/27 02:58:37;;;;;;;29.57;18.30;;;;;;;5.08;100.00;97854.42;1706333;83;21044;-78
2021/11/27 03:01:06;;;;;;;24.98;18.65;;;;;;;5.10;100.00;97869.08;1706605;84;21734;-77
2021/11/27 03:03:36;;;;;;;24.57;18.15;;;;;;;5.14;100.00;97858.69;1706524;84;21438;-76
2021/11/27 03:06:03;;;;;;;27.42;19.98;;;;;;;5.20;100.00;97853.14;1685919;84;21603;-76
2021/11/27 03:08:30;;;;;;;26.75;18.73;;;;;;;5.22;100.00;97853.69;1685715;84;21049;-77
2021/11/27 03:10:57;;;;;;;23.25;19.90;;;;;;;5.23;100.00;97847.28;1705256;83;21104;-77
2021/11/27 03:13:33;;;;;;;28.55;19.92;;;;;;;5.25;100.00;97829.70;1705102;83;21513;-77
2021/11/27 03:15:59;;;;;;;26.27;17.10;;;;;;;5.27;100.00;97841.69;1685870;84;20989;-77
2021/11/27 03:18:27;;;;;;;22.60;16.75;;;;;;;5.32;100.00;97834.80;1706449;83;21068;-77
2021/11/27 03:20:56;;;;;;;23.00;18.90;;;;;;;5.38;100.00;97822.55;1706542;84;21214;-77
2021/11/27 03:23:22;;;;;;;22.70;18.05;;;;;;;5.42;100.00;97822.28;1703240;82;21001;-77
2021/11/27 03:25:51;;;;;;;23.60;16.95;;;;;;;5.49;100.00;97826.05;1717884;82;20969;-76
2021/11/27 03:28:19;;;;;;;21.17;15.93;;;;;;;5.52;100.00;97818.84;1737019;82;21060;-77
2021/11/27 03:30:46;;;;;;;24.80;18.45;;;;;;;5.59;100.00;97820.22;1736990;82;21015;-75
2021/11/27 03:33:14;;;;;;;26.48;17.55;;;;;;;5.65;100.00;97823.70;1717830;82;21088;-75
2021/11/27 03:35:41;;;;;;;21.70;16.45;;;;;;;5.67;100.00;97816.22;1712016;83;20980;-73
2021/11/27 03:38:09;;;;;;;23.73;15.90;;;;;;;5.71;100.00;97814.09;1708519;83;20945;-74
2021/11/27 03:40:38;;;;;;;18.17;13.45;;;;;;;5.74;100.00;97810.11;1729331;82;21021;-75
2021/11/27 03:43:07;;;;;;;18.57;15.32;;;;;;;5.73;100.00;97810.37;1736925;82;20942;-75
2021/11/27 03:45:35;;;;;;;18.48;15.08;;;;;;;5.75;100.00;97811.72;1714571;83;21055;-75
2021/11/27 03:48:12;;;;;;;21.52;17.57;;;;;;;5.78;100.00;97811.71;1719311;82;21012;-76
2021/11/27 03:50:45;;;;;;;22.58;17.20;;;;;;;5.78;100.00;97805.05;1704755;83;21023;-78
2021/11/27 03:53:15;;;;;;;19.05;13.58;;;;;;;5.76;100.00;97802.63;1714325;82;21026;-78
2021/11/27 03:55:42;;;;;;;19.12;16.45;;;;;;;5.77;100.00;97800.23;1727380;82;21608;-74
2021/11/27 03:58:09;;;;;;;22.02;15.95;;;;;;;5.76;100.00;97786.62;1712651;83;21582;-76
2021/11/27 04:00:36;;;;;;;21.00;15.43;;;;;;;5.77;100.00;97782.91;1705456;84;21552;-76
2021/11/27 04:03:06;;;;;;;17.00;13.98;;;;;;;5.77;100.00;97781.57;1704193;83;21517;-79
2021/11/27 04:05:34;;;;;;;18.30;15.43;;;;;;;5.81;100.00;97783.16;1704865;84;21113;-77
2021/11/27 04:08:02;;;;;;;19.02;13.68;;;;;;;5.82;100.00;97782.10;1682890;84;21086;-77
2021/11/27 04:10:29;;;;;;;16.30;13.83;;;;;;;5.82;100.00;97784.24;1706741;83;21060;-77
2021/11/27 04:12:58;;;;;;;19.15;15.30;;;;;;;5.83;100.00;97768.52;1705411;84;20943;-77
2021/11/27 04:15:28;;;;;;;20.35;14.65;;;;;;;5.86;100.00;97772.50;1705290;84;20947;-76
2021/11/27 04:17:54;;;;;;;19.15;14.65;;;;;;;5.87;100.00;97772.80;1659659;84;21016;-77
2021/11/27 04:20:23;;;;;;;16.60;13.40;;;;;;;5.83;100.00;97769.84;1685025;84;21047;-76
2021/11/27 04:22:51;;;;;;;18.12;12.73;;;;;;;5.82;100.00;97762.91;1702448;84;21077;-76
2021/11/27 04:25:18;;;;;;;19.30;14.28;;;;;;;5.87;100.00;97756.80;1702624;84;20958;-77
2021/11/27 04:27:45;;;;;;;20.48;13.72;;;;;;;5.89;100.00;97756.81;1702497;84;21046;-74
2021/11/27 04:30:15;;;;;;;17.75;13.48;;;;;;;5.87;100.00;97760.27;1702603;84;21535;-75
2021/11/27 04:32:44;;;;;;;17.87;14.33;;;;;;;5.87;100.00;97757.61;1657954;84;21041;-75
2021/11/27 04:35:13;;;;;;;17.87;13.30;;;;;;;5.91;100.00;97760.00;1681439;84;21167;-74
2021/11/27 04:37:40;;;;;;;17.32;13.62;;;;;;;5.95;100.00;97761.59;1683103;84;20959;-75
2021/11/27 04:40:08;;;;;;;17.62;14.58;;;;;;;6.00;100.00;97778.94;1682878;84;21590;-75
2021/11/27 04:42:37;;;;;;;15.32;10.80;;;;;;;6.04;100.00;97768.80;1704980;84;21054;-75
2021/11/27 04:45:05;;;;;;;19.82;12.00;;;;;;;6.12;100.00;97760.27;1681335;84;21069;-75
2021/11/27 04:47:32;;;;;;;11.65;10.18;;;;;;;6.17;100.00;97767.47;1680583;84;21097;-74
2021/11/27 04:49:59;;;;;;;17.87;12.25;;;;;;;6.19;100.00;97767.98;1679862;84;21026;-74
2021/11/27 04:52:28;;;;;;;14.15;10.82;;;;;;;6.23;100.00;97778.95;1654127;85;21050;-74
2021/11/27 04:54:54;;;;;;;12.15;10.65;;;;;;;6.24;100.00;97780.00;1667050;82;21077;-74
2021/11/27 04:57:21;;;;;;;12.93;10.23;;;;;;;6.27;100.00;97796.83;1657788;84;21114;-73
2021/11/27 04:59:48;;;;;;;17.80;11.63;;;;;;;6.31;100.00;97799.22;1731692;82;21108;-73
2021/11/27 05:02:16;;;;;;;12.58;10.20;;;;;;;6.32;100.00;97782.67;1710648;82;21056;-77
2021/11/27 05:04:43;;;;;;;12.15;10.03;;;;;;;6.33;100.00;97779.71;1722321;82;20988;-75
2021/11/27 05:07:10;;;;;;;13.05;9.95;;;;;;;6.38;100.00;97786.38;1710846;82;21051;-78
2021/11/27 05:09:39;;;;;;;10.90;9.55;;;;;;;6.39;100.00;97799.20;1743477;82;21004;-77
2021/11/27 05:12:07;;;;;;;11.45;9.03;;;;;;;6.39;100.00;97786.66;1744347;82;21130;-78
2021/11/27 05:14:34;;;;;;;12.00;9.13;;;;;;;6.42;100.00;97802.69;1746176;81;20988;-78
2021/11/27 05:17:01;;;;;;;10.35;8.85;;;;;;;6.47;100.00;97789.33;1744640;81;21012;-77
2021/11/27 05:19:29;;;;;;;9.65;8.38;;;;;;;6.51;100.00;97780.52;1743541;80;21506;-77
2021/11/27 05:21:58;;;;;;;10.68;7.67;;;;;;;6.55;100.00;97787.44;1725253;82;20996;-77
2021/11/27 05:24:26;;;;;;;11.33;9.00;;;;;;;6.57;100.00;97795.42;1723323;82;21093;-76
2021/11/27 05:26:58;;;;;;;9.28;7.72;;;;;;;6.58;100.00;97790.89;1720160;82;21223;-76
2021/11/27 05:29:44;;;;;;;9.75;6.90;;;;;;;6.62;100.00;97786.61;1725452;82;20996;-76
2021/11/27 05:32:23;;;;;;;7.60;6.15;;;;;;;6.66;100.00;97789.03;1744232;82;21005;-77
2021/11/27 05:34:50;;;;;;;5.35;4.50;;;;;;;6.73;100.00;97780.70;1737716;82;21536;-76
2021/11/27 05:37:17;;;;;;;5.65;4.92;;;;;;;6.77;100.00;97781.23;1710744;82;21043;-75
2021/11/27 05:39:45;;;;;;;6.90;5.10;;;;;;;6.84;100.00;97780.95;1704116;83;20912;-77
2021/11/27 05:42:12;;;;;;;4.25;3.85;;;;;;;6.91;100.00;97783.58;1704549;83;20978;-77
2021/11/27 05:44:42;;;;;;;4.70;4.28;;;;;;;6.97;100.00;97779.83;1704373;84;21580;-76
2021/11/27 05:47:09;;;;;;;4.22;3.83;;;;;;;7.04;100.00;97778.75;1702445;83;21142;-78
2021/11/27 05:49:38;;;;;;;4.35;3.95;;;;;;;7.12;100.00;97788.33;1704197;84;21019;-78
2021/11/27 05:52:08;;;;;;;4.53;3.67;;;;;;;7.19;100.00;97794.19;1698596;84;21519;-77
2021/11/27 05:54:35;;;;;;;4.95;4.53;;;;;;;7.26;100.00;97798.69;1668002;84;21516;-77
2021/11/27 05:57:02;;;;;;;4.65;4.10;;;;;;;7.30;100.00;97797.59;1685137;84;20976;-78
2021/11/27 05:59:29;;;;;;;5.15;4.65;;;;;;;7.33;100.00;97789.84;1685947;84;21100;-78
2021/11/27 06:01:56;;;;;;;5.70;4.12;;;;;;;7.38;100.00;97801.86;1706520;84;21500;-76
2021/11/27 06:04:23;;;;;;;4.87;4.37;;;;;;;7.45;100.00;97801.53;1706462;83;21012;-77
2021/11/27 06:06:52;;;;;;;4.65;4.15;;;;;;;7.49;100.00;97803.11;1706685;83;21490;-76
2021/11/27 06:09:21;;;;;;;5.17;4.67;;;;;;;7.49;100.00;97799.90;1706588;83;20973;-75
2021/11/27 06:11:48;;;;;;;8.20;6.58;;;;;;;7.50;100.00;97800.17;1706584;83;21040;-76
2021/11/27 06:14:17;;;;;;;5.80;5.20;;;;;;;7.54;100.00;97802.55;1706275;83;21593;-76
2021/11/27 06:16:44;;;;;;;5.80;5.08;;;;;;;7.58;100.00;97807.60;1686121;84;20992;-75
2021/11/27 06:19:11;;;;;;;7.28;5.67;;;;;;;7.67;100.00;97815.34;1686364;84;21013;-75
2021/11/27 06:21:39;;;;;;;7.15;6.45;;;;;;;7.71;100.00;97807.02;1686739;84;21506;-77
2021/11/27 06:24:08;;;;;;;10.40;7.28;;;;;;;7.76;100.00;97806.18;1686655;84;21035;-75
2021/11/27 06:26:35;;;;;;;7.40;6.15;;;;;;;7.78;100.00;97804.81;1707197;83;21115;-72
2021/11/27 06:29:03;;;;;;;8.58;6.00;;;;;;;7.84;100.00;97816.28;1686255;84;21543;-75
2021/11/27 06:31:30;;;;;;;5.90;5.30;;;;;;;7.89;100.00;97822.94;1708859;81;20913;-76
2021/11/27 06:33:57;;;;;;;7.22;6.53;;;;;;;7.98;100.00;97817.79;1709841;84;21041;-76
2021/11/27 06:36:26;;;;;;;7.47;6.25;;;;;;;7.99;100.00;97820.20;1690360;84;20905;-76
2021/11/27 06:38:55;;;;;;;8.53;7.15;;;;;;;7.98;100.00;97814.58;1681808;84;22918;-76
2021/11/27 06:41:21;;;;;;;8.05;6.85;;;;;;;7.96;100.00;97816.72;1687432;84;21020;-77
2021/11/27 06:43:50;;;;;;;7.25;6.55;;;;;;;7.99;100.00;97820.20;1705662;84;20945;-76
2021/11/27 06:46:22;;;;;;;8.00;7.15;;;;;;;8.04;100.00;97817.48;1667557;84;21016;-77
2021/11/27 06:48:49;;;;;;;9.08;7.70;;;;;;;8.11;100.00;97817.95;1688904;84;21005;-78
2021/11/27 06:51:16;;;;;;;7.90;5.67;;;;;;;8.13;100.00;97810.45;1686955;84;21172;-77
2021/11/27 06:53:43;;;;;;;8.78;6.95;;;;;;;8.13;100.00;97815.81;1706887;83;20953;-77
2021/11/27 06:56:10;;;;;;;8.05;7.17;;;;;;;8.17;100.00;97824.07;1686208;84;21069;-77
2021/11/27 06:58:37;;;;;;;6.92;6.20;;;;;;;8.23;100.00;97821.63;1705388;83;21146;-75
2021/11/27 07:01:09;;;;;;;9.08;6.50;;;;;;;8.25;100.00;97822.13;1706258;83;21072;-79
2021/11/27 07:03:51;;;;;;;7.22;6.25;;;;;;;8.26;100.00;97827.20;1632004;84;21103;-75
2021/11/27 07:06:26;;;;;;;7.35;6.00;;;;;;;8.28;100.00;97826.94;1693011;84;21068;-78
2021/11/27 07:08:55;;;;;;;7.72;6.90;;;;;;;8.29;100.00;97829.89;1706869;83;21001;-77
2021/11/27 07:11:24;;;;;;;12.80;7.17;;;;;;;8.31;100.00;97839.79;1703434;84;21593;-76
2021/11/27 07:13:51;;;;;;;8.75;7.60;;;;;;;8.32;100.00;97836.04;1706171;84;21078;-76
2021/11/27 07:16:19;;;;;;;11.93;9.48;;;;;;;8.34;100.00;97833.09;1706488;83;21270;-78
2021/11/27 07:18:46;;;;;;;9.53;8.35;;;;;;;8.36;100.00;97832.25;1685966;84;20964;-78
2021/11/27 07:21:14;;;;;;;8.73;7.80;;;;;;;8.40;100.00;97834.63;1706378;83;21509;-78
2021/11/27 07:23:41;;;;;;;9.48;8.55;;;;;;;8.43;100.00;97836.76;1706516;83;21054;-78
2021/11/27 07:26:08;;;;;;;9.35;8.18;;;;;;;8.45;100.00;97835.92;1706305;83;21088;-78
2021/11/27 07:28:41;;;;;;;11.22;9.15;;;;;;;8.47;100.00;97835.11;1706907;83;21055;-77
2021/11/27 07:31:09;;;;;;;10.98;9.70;;;;;;;8.48;100.00;97829.48;1686055;84;21552;-77
2021/11/27 07:33:36;;;;;;;10.00;8.95;;;;;;;8.51;100.00;97831.59;1685688;84;21108;-77
2021/11/27 07:36:04;;;;;;;13.08;10.30;;;;;;;8.56;100.00;97840.12;1706574;84;21096;-78
2021/11/27 07:38:31;;;;;;;10.98;9.30;;;;;;;8.56;100.00;97840.92;1682026;85;21096;-80
2021/11/27 07:40:58;;;;;;;12.63;10.28;;;;;;;8.59;100.00;97838.20;1678282;85;22431;-75
2021/11/27 07:43:25;;;;;;;12.13;10.08;;;;;;;8.63;100.00;97843.28;1658375;85;21075;-75
2021/11/27 07:46:01;;;;;;;13.50;10.23;;;;;;;8.67;100.00;97839.75;1677418;85;21073;-75
2021/11/27 07:48:47;;;;;;;12.07;10.82;;;;;;;8.68;100.00;97831.95;1681414;84;21595;-74
2021/11/27 07:51:32;;;;;;;14.70;13.15;;;;;;;8.71;100.00;97846.68;1657147;85;20954;-75
2021/11/27 07:54:01;;;;;;;14.55;12.37;;;;;;;8.73;100.00;97847.18;1698503;83;22325;-75
2021/11/27 07:56:29;;;;;;;15.20;12.73;;;;;;;8.79;100.00;97851.95;1677685;84;21579;-78
2021/11/27 07:58:55;;;;;;;14.87;13.28;;;;;;;8.85;100.00;97852.97;1676794;84;21065;-78
2021/11/27 08:01:23;;;;;;;16.40;11.12;;;;;;;8.88;100.00;97859.63;1675710;84;21082;-80
2021/11/27 08:03:50;;;;;;;12.98;11.33;;;;;;;8.93;100.00;97856.91;1701836;84;21595;-79
2021/11/27 08:06:18;;;;;;;15.00;12.35;;;;;;;8.95;100.00;97856.09;1701827;84;21205;-81
2021/11/27 08:08:45;;;;;;;15.70;12.60;;;;;;;8.98;100.00;97848.27;1675593;84;21009;-77
2021/11/27 08:11:12;;;;;;;14.28;12.20;;;;;;;8.97;100.00;97843.22;1701898;84;21035;-79
2021/11/27 08:13:42;;;;;;;14.68;12.55;;;;;;;8.96;100.00;97851.80;1685042;84;20974;-79
2021/11/27 08:16:09;;;;;;;15.48;13.00;;;;;;;8.99;100.00;97845.05;1685747;84;21407;-81
2021/11/27 08:18:39;;;;;;;15.78;11.88;;;;;;;9.01;100.00;97844.23;1726621;82;21575;-79
2021/11/27 08:21:07;;;;;;;15.25;12.95;;;;;;;9.09;100.00;97846.28;1742267;81;20943;-82
2021/11/27 08:23:34;;;;;;;15.08;13.25;;;;;;;9.12;100.00;97861.25;1738296;82;21066;-78
2021/11/27 08:26:01;;;;;;;20.70;15.10;;;;;;;9.17;100.00;97870.59;1712765;82;21531;-79
2021/11/27 08:28:29;;;;;;;20.02;14.25;;;;;;;9.28;100.00;97860.55;1738302;82;21395;-80
2021/11/27 08:30:57;;;;;;;17.25;13.58;;;;;;;9.35;100.00;97850.26;1735558;82;21493;-80
2021/11/27 08:33:24;;;;;;;20.48;14.75;;;;;;;9.38;100.00;97845.68;1723416;82;21513;-79
2021/11/27 08:35:51;;;;;;;18.20;14.83;;;;;;;9.42;100.00;97856.63;1702012;82;21094;-80
2021/11/27 08:38:18;;;;;;;14.28;11.45;;;;;;;9.45;100.00;97871.60;1677963;84;21106;-75
2021/11/27 08:40:45;;;;;;;18.45;15.65;;;;;;;9.55;100.00;97859.41;1704991;84;21023;-74
2021/11/27 08:43:15;;;;;;;24.10;15.60;;;;;;;9.57;100.00;97858.59;1688426;82;21540;-78
2021/11/27 08:45:45;;;;;;;15.95;12.82;;;;;;;9.63;100.00;97852.08;1712897;82;21046;-75
2021/11/27 08:48:12;;;;;;;17.30;14.10;;;;;;;9.71;100.00;97860.55;1712943;82;21106;-74
2021/11/27 08:50:42;;;;;;;21.15;14.70;;;;;;;9.77;100.00;97858.06;1738353;82;20990;-75
2021/11/27 08:53:14;;;;;;;17.02;15.13;;;;;;;9.83;100.00;97855.00;1738662;82;20892;-76
2021/11/27 08:55:41;;;;;;;16.57;14.43;;;;;;;9.87;100.00;97860.61;1729390;82;21068;-73
2021/11/27 08:58:07;;;;;;;18.10;15.23;;;;;;;9.94;100.00;97858.35;1738139;82;21082;-72
2021/11/27 09:00:34;;;;;;;21.82;16.05;;;;;;;9.95;100.00;97850.55;1738940;81;21687;-74
2021/11/27 09:03:04;;;;;;;19.90;16.73;;;;;;;9.96;100.00;97848.94;1711329;82;21001;-72
2021/11/27 09:05:33;;;;;;;16.97;13.98;;;;;;;9.96;100.00;97843.56;1735073;82;21614;-76
2021/11/27 09:08:01;;;;;;;16.10;14.20;;;;;;;10.02;100.00;97845.63;1737551;82;21234;-75
2021/11/27 09:10:28;;;;;;;19.15;17.07;;;;;;;10.08;100.00;97853.30;1735447;82;20982;-76
2021/11/27 09:12:55;;;;;;;19.32;17.27;;;;;;;10.16;100.00;97856.47;1712859;82;21018;-76
2021/11/27 09:15:22;;;;;;;22.90;16.85;;;;;;;10.24;100.00;97851.22;1712857;82;21042;-77
2021/11/27 09:17:49;;;;;;;16.60;13.88;;;;;;;10.30;100.00;97857.33;1711661;82;21073;-74
2021/11/27 09:20:18;;;;;;;19.75;15.88;;;;;;;10.31;99.65;97859.70;1736964;82;20987;-75
2021/11/27 09:22:45;;;;;;;21.80;16.42;;;;;;;10.32;99.20;97863.98;1734881;81;21520;-77
2021/11/27 09:25:12;;;;;;;18.37;16.45;;;;;;;10.36;98.83;97861.53;1712784;82;21009;-80
2021/11/27 09:27:39;;;;;;;23.73;16.05;;;;;;;10.44;98.95;97871.06;1711556;82;21594;-78
2021/11/27 09:30:09;;;;;;;21.00;16.55;;;;;;;10.46;97.47;97864.84;1712505;82;21079;-77
2021/11/27 09:32:36;;;;;;;19.60;17.10;;;;;;;10.50;97.27;97865.06;1715780;82;21162;-75
2021/11/27 09:35:06;;;;;;;23.30;16.32;;;;;;;10.56;97.05;97863.07;1713350;82;21006;-74
2021/11/27 09:37:33;;;;;;;20.55;18.15;;;;;;;10.57;96.20;97862.78;1696074;84;21223;-74
2021/11/27 09:40:05;;;;;;;18.92;14.98;;;;;;;10.56;95.76;97873.28;1704905;84;21070;-72
2021/11/27 09:42:36;;;;;;;22.55;18.30;;;;;;;10.59;95.61;97864.64;1678119;84;21074;-74
2021/11/27 09:45:04;;;;;;;20.68;16.10;;;;;;;10.61;94.96;97866.48;1677148;84;21083;-74
2021/11/27 09:47:34;;;;;;;23.35;17.87;;;;;;;10.66;95.08;97865.59;1704581;84;20982;-75
2021/11/27 09:50:05;;;;;;;18.82;15.18;;;;;;;10.70;94.52;97871.97;1678224;84;21036;-75
2021/11/27 09:52:33;;;;;;;16.52;13.83;;;;;;;10.72;94.12;97873.28;1704541;84;21020;-75
2021/11/27 09:55:03;;;;;;;29.67;16.62;;;;;;;10.73;93.53;97878.12;1677932;83;21020;-80
2021/11/27 09:57:30;;;;;;;23.52;17.42;;;;;;;10.73;93.56;97882.95;1646448;85;21031;-78
2021/11/27 09:59:57;;;;;;;21.55;16.60;;;;;;;10.71;93.14;97878.41;1675337;85;20983;-74
2021/11/27 10:02:24;;;;;;;19.60;16.37;;;;;;;10.71;93.05;97884.33;1651358;85;21715;-76
2021/11/27 10:04:54;;;;;;;20.48;15.68;;;;;;;10.74;93.11;97883.19;1649396;85;21535;-75
2021/11/27 10:07:22;;;;;;;19.73;17.17;;;;;;;10.74;91.89;97883.75;1675839;85;21066;-73
2021/11/27 10:09:51;;;;;;;21.70;16.70;;;;;;;10.76;92.36;97876.17;1672310;85;21667;-74
2021/11/27 10:12:20;;;;;;;20.27;16.80;;;;;;;10.85;92.41;97868.48;1675638;85;21144;-75
2021/11/27 10:14:47;;;;;;;22.27;17.48;;;;;;;10.92;91.27;97872.14;1675043;85;21021;-75
2021/11/27 10:17:23;;;;;;;19.80;16.80;;;;;;;10.94;90.63;97859.97;1677324;84;20944;-78
2021/11/27 10:19:53;;;;;;;18.82;16.02;;;;;;;10.96;90.27;97861.03;1649410;85;21062;-78
2021/11/27 10:22:49;;;;;;;24.90;17.90;;;;;;;11.02;90.25;97855.02;1678900;84;21325;-76
2021/11/27 10:25:32;;;;;;;19.65;16.02;;;;;;;11.08;89.79;97864.02;1675794;85;21540;-76
2021/11/27 10:28:12;;;;;;;25.00;17.73;;;;;;;11.16;89.15;97868.73;1675987;85;21527;-74
2021/11/27 10:30:43;;;;;;;18.57;15.95;;;;;;;11.13;87.41;97859.09;1674335;85;21562;-74
2021/11/27 10:33:10;;;;;;;20.70;15.65;;;;;;;11.11;87.39;97872.06;1672976;85;21121;-75
2021/11/27 10:35:54;;;;;;;21.75;16.10;;;;;;;11.11;87.13;97863.99;1675131;85;21143;-76
2021/11/27 10:38:23;;;;;;;18.45;15.53;;;;;;;11.20;87.13;97868.38;1647695;85;21174;-75
2021/11/27 10:40:57;;;;;;;18.05;15.90;;;;;;;11.27;85.69;97862.04;1674264;85;21002;-74
2021/11/27 10:43:25;;;;;;;21.05;16.45;;;;;;;11.29;85.75;97856.37;1650458;85;21648;-73
2021/11/27 10:45:52;;;;;;;14.55;12.93;;;;;;;11.32;85.46;97855.22;1650632;85;22232;-75
2021/11/27 10:48:28;;;;;;;21.62;18.12;;;;;;;11.35;85.21;97847.91;1651025;85;21078;-77
2021/11/27 10:50:55;;;;;;;;;;;;;;;11.35;84.68;97847.91;1676971;85;21609;-75
2021/11/27 10:53:33;;;;;;;22.00;17.23;;;;;;;11.41;85.09;97851.84;1676037;85;20252;-75
2021/11/27 10:56:07;;;;;;;18.30;15.68;;;;;;;11.50;85.01;97853.53;1653350;84;21079;-74
2021/11/27 10:58:59;;;;;;;19.57;15.20;;;;;;;11.62;84.28;97859.73;1725694;82;21441;-73
2021/11/27 11:01:26;;;;;;;17.95;15.28;;;;;;;11.67;83.48;97859.09;1703313;82;21143;-78
2021/11/27 11:03:53;;;;;;;22.20;15.35;;;;;;;11.68;82.79;97863.92;1701824;84;21543;-75
2021/11/27 11:06:25;;;;;;;18.77;14.80;;;;;;;11.71;82.12;97863.31;1701020;84;20987;-74
2021/11/27 11:08:53;;;;;;;16.23;14.03;;;;;;;11.68;81.29;97866.07;1699843;84;21066;-73
2021/11/27 11:11:25;;;;;;;18.23;12.68;;;;;;;11.68;81.24;97870.66;1701872;84;21540;-75
2021/11/27 11:13:58;;;;;;;16.70;14.73;;;;;;;11.68;80.89;97868.77;1702831;83;21078;-73
2021/11/27 11:16:27;;;;;;;;;;;;;;;11.57;80.18;97874.10;1702453;82;21495;-72
2021/11/27 11:19:15;;;;;;;22.00;14.93;;;;;;;11.49;80.13;97872.67;1680155;84;20114;-75
2021/11/27 11:22:28;;;;;;;17.17;14.78;;;;;;;11.46;80.33;97880.01;1680057;84;21344;-80
2021/11/27 11:24:54;;;;;;;17.10;13.88;;;;;;;11.46;80.52;97881.35;1700746;84;21568;-82
2021/11/27 11:27:35;;;;;;;23.47;17.17;;;;;;;11.49;80.64;97885.58;1636427;84;21057;-83
2021/11/27 11:30:05;;;;;;;21.85;17.50;;;;;;;11.54;80.64;97886.83;1703182;84;21013;-82